ABI weather

Abilene Regional Airport
Abilene, Texas, United States

Public forecast

Using degrees Fahrenheit for public forecast. Weather courtesy of forecast.io.

METAR (pilot weather report)

Retrieved 2019/05/22 15:20 UTC (0 seconds ago):

KABI 221520Z 18017G25KT 7SM HZ SCT020 27/22 A2971

TAF (pilot weather forecast)

Retrieved 2019/05/22 12:22 UTC (3 hours ago):

TAF KABI 221120Z 2212/2312 17012KT P6SM OVC015 FM221500 19015G23KT P6SM BKN025 FM221700 19015G23KT P6SM FEW030 FM230100 15014G22KT P6SM FEW030 FM230800 16015G23KT P6SM OVC025